createdAt,value
2023-04-10T00:00:12.389Z,93.83
2023-04-10T00:01:12.370Z,93.98
2023-04-10T00:02:12.405Z,93.98
2023-04-10T00:03:12.695Z,94.08
2023-04-10T00:04:12.405Z,94.18
2023-04-10T00:05:12.312Z,94.18
2023-04-10T00:06:12.303Z,94.38
2023-04-10T00:07:12.265Z,94.28
2023-04-10T00:08:12.252Z,94.38
2023-04-10T00:09:12.275Z,94.28
2023-04-10T00:10:12.226Z,94.18
2023-04-10T00:11:12.227Z,94.28
2023-04-10T00:12:12.588Z,94.38
2023-04-10T00:13:12.186Z,94.38
2023-04-10T00:14:12.187Z,94.28
2023-04-10T00:15:12.163Z,94.28
2023-04-10T00:16:12.236Z,94.28
2023-04-10T00:17:12.134Z,94.28
2023-04-10T00:18:12.141Z,94.18
2023-04-10T00:19:12.111Z,94.18
2023-04-10T00:20:12.092Z,94.28
2023-04-10T00:21:12.090Z,94.28
2023-04-10T00:22:12.066Z,94.18
2023-04-10T00:23:12.071Z,94.18
2023-04-10T00:24:12.029Z,94.49
2023-04-10T00:25:12.051Z,94.38
2023-04-10T00:26:12.021Z,94.49
2023-04-10T00:27:12.017Z,94.49
2023-04-10T00:28:11.978Z,94.59
2023-04-10T00:29:11.981Z,94.49
2023-04-10T00:30:11.969Z,94.49
2023-04-10T00:31:11.952Z,94.43
2023-04-10T00:32:11.953Z,94.49
2023-04-10T00:33:11.944Z,94.43
2023-04-10T00:34:11.926Z,94.53
2023-04-10T00:35:11.919Z,94.64
2023-04-10T00:36:12.174Z,94.74
2023-04-10T00:37:11.885Z,94.74
2023-04-10T00:38:11.865Z,94.74
2023-04-10T00:39:11.853Z,94.74
2023-04-10T00:40:11.852Z,94.74
2023-04-10T00:41:11.830Z,94.70
2023-04-10T00:42:11.821Z,94.74
2023-04-10T00:43:11.827Z,94.74
2023-04-10T00:44:11.814Z,94.74
2023-04-10T00:45:11.808Z,94.74
2023-04-10T00:46:11.782Z,94.84
2023-04-10T00:47:11.775Z,94.70
2023-04-10T00:48:11.751Z,94.74
2023-04-10T00:49:11.742Z,94.74
2023-04-10T00:50:11.736Z,94.84
2023-04-10T00:51:11.735Z,94.74
2023-04-10T00:52:11.714Z,94.84
2023-04-10T00:53:11.678Z,94.95
2023-04-10T00:54:11.666Z,94.84
2023-04-10T00:55:11.678Z,94.84
2023-04-10T00:56:11.636Z,94.84
2023-04-10T00:57:11.631Z,94.95
2023-04-10T00:58:11.612Z,94.95
2023-04-10T00:59:11.611Z,95.05
2023-04-10T01:00:11.604Z,94.95
2023-04-10T01:01:11.624Z,94.95
2023-04-10T01:02:11.606Z,95.05
2023-04-10T01:03:11.753Z,95.05
2023-04-10T01:04:11.625Z,95.05
2023-04-10T01:05:11.547Z,95.05
2023-04-10T01:06:11.527Z,95.05
2023-04-10T01:07:11.509Z,95.05
2023-04-10T01:08:11.477Z,95.05
2023-04-10T01:09:11.470Z,94.99
2023-04-10T01:10:11.463Z,95.30
2023-04-10T01:11:11.468Z,95.40
2023-04-10T01:12:11.433Z,95.50
2023-04-10T01:13:11.439Z,95.40
2023-04-10T01:14:11.410Z,95.50
2023-04-10T01:15:11.425Z,95.50
2023-04-10T01:16:11.373Z,95.61
2023-04-10T01:17:11.490Z,95.92
2023-04-10T01:18:11.344Z,95.92
2023-04-10T01:19:11.338Z,95.92
2023-04-10T01:20:11.344Z,95.81
2023-04-10T01:21:11.323Z,96.02
2023-04-10T01:22:11.316Z,96.02
2023-04-10T01:23:11.360Z,95.92
2023-04-10T01:24:11.269Z,96.02
2023-04-10T01:25:11.278Z,96.12
2023-04-10T01:26:11.268Z,96.02
2023-04-10T01:27:11.255Z,95.92
2023-04-10T01:28:11.250Z,95.92
2023-04-10T01:29:11.225Z,95.81
2023-04-10T01:30:11.226Z,95.71
2023-04-10T01:31:11.202Z,95.71
2023-04-10T01:32:11.177Z,95.71
2023-04-10T01:33:11.165Z,95.81
2023-04-10T01:34:11.164Z,95.92
2023-04-10T01:35:11.184Z,95.92
2023-04-10T01:36:11.195Z,95.81
2023-04-10T01:37:11.123Z,95.81
2023-04-10T01:38:11.113Z,96.02
2023-04-10T01:39:11.088Z,96.02
2023-04-10T01:40:11.086Z,96.12
2023-04-10T01:41:11.080Z,96.02
2023-04-10T01:42:11.041Z,96.02
2023-04-10T01:43:11.076Z,96.02
2023-04-10T01:44:11.014Z,96.17
2023-04-10T01:45:11.054Z,96.17
2023-04-10T01:46:11.026Z,96.27
2023-04-10T01:47:11.003Z,96.37
2023-04-10T01:48:10.975Z,96.37
2023-04-10T01:49:10.965Z,96.37
2023-04-10T01:50:10.974Z,96.37
2023-04-10T01:51:10.951Z,96.37
2023-04-10T01:52:10.924Z,96.27
2023-04-10T01:53:10.921Z,96.37
2023-04-10T01:54:10.902Z,96.48
2023-04-10T01:55:10.921Z,96.37
2023-04-10T01:56:10.872Z,96.37
2023-04-10T01:57:10.878Z,96.48
2023-04-10T01:58:10.866Z,96.58
2023-04-10T01:59:10.880Z,96.48
2023-04-10T02:00:10.944Z,96.48
2023-04-10T02:01:22.572Z,96.69
2023-04-10T02:02:12.089Z,96.69
2023-04-10T02:03:11.193Z,96.69
2023-04-10T02:04:11.002Z,96.69
2023-04-10T02:05:10.788Z,96.69
2023-04-10T02:06:10.762Z,96.69
2023-04-10T02:07:10.773Z,96.69
2023-04-10T02:08:10.749Z,96.62
2023-04-10T02:09:11.073Z,96.73
2023-04-10T02:10:10.730Z,96.73
2023-04-10T02:11:10.675Z,96.94
2023-04-10T02:12:10.714Z,97.04
2023-04-10T02:13:10.705Z,96.94
2023-04-10T02:14:10.669Z,97.04
2023-04-10T02:15:10.654Z,97.14
2023-04-10T02:16:10.676Z,97.14
2023-04-10T02:17:10.666Z,97.04
2023-04-10T02:18:10.622Z,97.04
2023-04-10T02:19:10.586Z,97.04
2023-04-10T02:20:10.614Z,97.04
2023-04-10T02:21:10.574Z,97.25
2023-04-10T02:22:10.562Z,97.34
2023-04-10T02:23:10.613Z,97.34
2023-04-10T02:24:10.544Z,97.25
2023-04-10T02:25:10.539Z,97.14
2023-04-10T02:26:10.516Z,97.04
2023-04-10T02:27:10.485Z,97.04
2023-04-10T02:28:10.579Z,97.04
2023-04-10T02:29:10.456Z,96.94
2023-04-10T02:30:10.476Z,97.04
2023-04-10T02:31:10.465Z,97.08
2023-04-10T02:32:10.442Z,97.19
2023-04-10T02:33:10.427Z,97.39
2023-04-10T02:34:10.415Z,97.39
2023-04-10T02:35:10.400Z,97.39
2023-04-10T02:36:10.529Z,97.50
2023-04-10T02:37:10.386Z,97.50
2023-04-10T02:38:10.641Z,97.50
2023-04-10T02:39:10.391Z,97.50
2023-04-10T02:40:10.692Z,97.50
2023-04-10T02:41:10.324Z,97.34
2023-04-10T02:42:10.320Z,97.34
2023-04-10T02:43:10.299Z,97.39
2023-04-10T02:44:10.293Z,97.39
2023-04-10T02:45:10.287Z,97.39
2023-04-10T02:46:10.290Z,97.50
2023-04-10T02:47:10.253Z,97.50
2023-04-10T02:48:10.238Z,97.60
2023-04-10T02:49:10.210Z,97.50
2023-04-10T02:50:10.245Z,97.50
2023-04-10T02:51:10.192Z,97.50
2023-04-10T02:52:10.192Z,97.60
2023-04-10T02:53:10.188Z,97.60
2023-04-10T02:54:10.171Z,97.60
2023-04-10T02:55:10.164Z,97.71
2023-04-10T02:56:10.166Z,97.81
2023-04-10T02:57:10.144Z,97.91
2023-04-10T02:58:10.111Z,97.91
2023-04-10T02:59:10.232Z,98.01
2023-04-10T03:00:10.143Z,98.01
2023-04-10T03:01:10.077Z,98.01
2023-04-10T03:02:10.198Z,98.01
2023-04-10T03:03:10.182Z,98.11
2023-04-10T03:04:10.129Z,98.22
2023-04-10T03:05:10.042Z,98.32
2023-04-10T03:06:10.016Z,98.32
2023-04-10T03:07:10.068Z,98.32
2023-04-10T03:08:10.014Z,98.43
2023-04-10T03:09:10.006Z,98.53
2023-04-10T03:10:09.992Z,98.63
2023-04-10T03:11:10.122Z,98.74
2023-04-10T03:12:09.986Z,98.63
2023-04-10T03:13:09.940Z,98.53
2023-04-10T03:14:09.938Z,98.53
2023-04-10T03:15:09.902Z,98.53
2023-04-10T03:16:09.965Z,98.63
2023-04-10T03:17:09.875Z,98.74
2023-04-10T03:18:09.883Z,98.74
2023-04-10T03:19:09.872Z,98.84
2023-04-10T03:20:09.891Z,98.94
2023-04-10T03:21:09.852Z,98.99
2023-04-10T03:22:09.835Z,98.99
2023-04-10T03:23:09.851Z,99.09
2023-04-10T03:24:09.813Z,99.19
2023-04-10T03:25:09.831Z,99.19
2023-04-10T03:26:09.774Z,99.09
2023-04-10T03:27:09.783Z,98.99
2023-04-10T03:28:09.764Z,99.09
2023-04-10T03:29:09.732Z,99.19
2023-04-10T03:30:09.726Z,99.30
2023-04-10T03:31:09.793Z,99.30
2023-04-10T03:32:09.714Z,99.19
2023-04-10T03:33:09.837Z,99.24
2023-04-10T03:34:09.683Z,99.34
2023-04-10T03:35:09.636Z,99.44
2023-04-10T03:36:09.709Z,99.55
2023-04-10T03:37:09.626Z,99.61
2023-04-10T03:38:09.625Z,99.61
2023-04-10T03:39:09.600Z,99.71
2023-04-10T03:40:09.596Z,99.71
2023-04-10T03:41:09.576Z,99.71
2023-04-10T03:42:09.616Z,99.61
2023-04-10T03:43:09.570Z,99.61
2023-04-10T03:44:09.549Z,99.61
2023-04-10T03:45:09.518Z,99.71
2023-04-10T03:46:09.536Z,99.51
2023-04-10T03:47:09.528Z,99.30
2023-04-10T03:48:09.494Z,99.19
2023-04-10T03:49:09.474Z,99.19
2023-04-10T03:50:09.472Z,99.34
2023-04-10T03:51:09.462Z,99.34
2023-04-10T03:52:09.473Z,99.44
2023-04-10T03:53:09.423Z,99.44
2023-04-10T03:54:09.429Z,99.44
2023-04-10T03:55:09.398Z,99.44
2023-04-10T03:56:09.393Z,99.44
2023-04-10T03:57:09.362Z,99.44
2023-04-10T03:58:09.365Z,99.44
2023-04-10T03:59:09.350Z,99.55
2023-04-10T04:00:09.342Z,99.44
2023-04-10T04:01:09.315Z,99.44
2023-04-10T04:02:09.400Z,99.55
2023-04-10T04:03:09.570Z,99.55
2023-04-10T04:04:09.472Z,99.44
2023-04-10T04:05:09.361Z,99.34
2023-04-10T04:06:09.306Z,99.34
2023-04-10T04:07:09.266Z,99.34
2023-04-10T04:08:09.262Z,99.34
2023-04-10T04:09:09.241Z,99.34
2023-04-10T04:10:09.253Z,99.24
2023-04-10T04:11:09.212Z,99.34
2023-04-10T04:12:09.209Z,99.34
2023-04-10T04:13:09.170Z,99.34
2023-04-10T04:14:09.156Z,99.34
2023-04-10T04:15:09.139Z,99.34
2023-04-10T04:16:09.198Z,99.24
2023-04-10T04:17:09.121Z,99.24
2023-04-10T04:18:09.134Z,99.34
2023-04-10T04:19:09.104Z,99.34
2023-04-10T04:20:09.114Z,99.30
2023-04-10T04:21:09.077Z,99.19
2023-04-10T04:22:09.078Z,99.09
2023-04-10T04:23:09.058Z,99.04
2023-04-10T04:24:09.073Z,99.04
2023-04-10T04:25:09.021Z,99.14
2023-04-10T04:26:09.032Z,99.14
2023-04-10T04:27:09.000Z,99.14
2023-04-10T04:28:09.021Z,99.14
2023-04-10T04:29:08.967Z,99.14
2023-04-10T04:30:08.974Z,99.24
2023-04-10T04:31:08.965Z,99.14
2023-04-10T04:32:09.104Z,99.04
2023-04-10T04:33:08.986Z,98.93
2023-04-10T04:34:09.036Z,98.93
2023-04-10T04:35:08.909Z,98.93
2023-04-10T04:36:08.970Z,98.83
2023-04-10T04:37:08.856Z,98.83
2023-04-10T04:38:08.900Z,98.72
2023-04-10T04:39:08.876Z,98.72
2023-04-10T04:40:08.842Z,98.57
2023-04-10T04:41:08.846Z,98.62
2023-04-10T04:42:08.811Z,98.62
2023-04-10T04:43:08.889Z,98.62
2023-04-10T04:44:08.823Z,98.52
2023-04-10T04:45:08.767Z,98.52
2023-04-10T04:46:08.791Z,98.52
2023-04-10T04:47:08.747Z,98.52
2023-04-10T04:48:08.746Z,98.52
2023-04-10T04:49:08.729Z,98.52
2023-04-10T04:50:15.784Z,98.47
2023-04-10T04:51:08.736Z,98.37
2023-04-10T04:52:08.695Z,98.37
2023-04-10T04:53:08.700Z,98.27
2023-04-10T04:54:08.684Z,98.16
2023-04-10T04:55:08.701Z,98.16
2023-04-10T04:56:08.721Z,98.16
2023-04-10T04:57:08.603Z,98.27
2023-04-10T04:58:08.621Z,98.27
2023-04-10T04:59:08.589Z,98.27
2023-04-10T05:00:08.593Z,98.16
2023-04-10T05:01:08.687Z,98.16
2023-04-10T05:02:08.720Z,98.16
2023-04-10T05:03:08.643Z,98.06
2023-04-10T05:04:08.857Z,98.06
2023-04-10T05:05:08.545Z,97.96
2023-04-10T05:06:08.535Z,97.96
2023-04-10T05:07:08.491Z,97.96
2023-04-10T05:08:08.494Z,97.81
2023-04-10T05:09:08.476Z,97.85
2023-04-10T05:10:08.483Z,97.81
2023-04-10T05:11:08.453Z,97.81
2023-04-10T05:12:08.436Z,97.81
2023-04-10T05:13:08.440Z,97.81
2023-04-10T05:14:08.416Z,97.71
2023-04-10T05:15:08.403Z,97.71
2023-04-10T05:16:08.444Z,97.60
2023-04-10T05:17:08.408Z,97.60
2023-04-10T05:18:08.898Z,97.50
2023-04-10T05:19:08.413Z,97.39
2023-04-10T05:20:08.452Z,97.34
2023-04-10T05:21:08.419Z,97.34
2023-04-10T05:22:08.349Z,97.34
2023-04-10T05:23:08.308Z,97.25
2023-04-10T05:24:08.291Z,97.14
2023-04-10T05:25:08.316Z,97.14
2023-04-10T05:26:08.281Z,97.04
2023-04-10T05:27:08.248Z,96.83
2023-04-10T05:28:08.334Z,96.73
2023-04-10T05:29:08.223Z,96.73
2023-04-10T05:30:08.264Z,96.73
2023-04-10T05:31:08.331Z,96.73
2023-04-10T05:32:08.213Z,96.52
2023-04-10T05:33:08.203Z,96.52
2023-04-10T05:34:08.185Z,96.37
2023-04-10T05:35:08.176Z,96.37
2023-04-10T05:36:08.199Z,96.27
2023-04-10T05:37:08.143Z,96.17
2023-04-10T05:38:08.179Z,96.17
2023-04-10T05:39:08.108Z,96.17
2023-04-10T05:40:08.122Z,95.96
2023-04-10T05:41:08.133Z,95.61
2023-04-10T05:42:08.101Z,95.50
2023-04-10T05:43:08.772Z,95.50
2023-04-10T05:44:08.079Z,95.30
2023-04-10T05:45:08.041Z,95.20
2023-04-10T05:46:08.119Z,95.20
2023-04-10T05:47:08.011Z,95.09
2023-04-10T05:48:07.988Z,95.15
2023-04-10T05:49:07.979Z,95.05
2023-04-10T05:50:08.014Z,94.95
2023-04-10T05:51:08.026Z,94.70
2023-04-10T05:52:07.984Z,94.49
2023-04-10T05:53:07.947Z,94.38
2023-04-10T05:54:07.932Z,94.28
2023-04-10T05:55:07.922Z,93.98
2023-04-10T05:56:07.999Z,93.98
2023-04-10T05:57:07.885Z,93.83
2023-04-10T05:58:07.836Z,93.73
2023-04-10T05:59:07.873Z,93.73
2023-04-10T06:00:07.823Z,93.62
2023-04-10T06:01:07.817Z,93.52
2023-04-10T06:02:07.889Z,93.31
2023-04-10T06:03:07.882Z,93.16
2023-04-10T06:04:08.239Z,93.16
2023-04-10T06:05:07.929Z,93.06
2023-04-10T06:06:07.839Z,92.96
2023-04-10T06:07:07.751Z,92.86
2023-04-10T06:08:07.756Z,92.86
2023-04-10T06:09:07.781Z,92.71
2023-04-10T06:10:07.688Z,92.50
2023-04-10T06:11:07.728Z,92.40
2023-04-10T06:12:07.656Z,92.20
2023-04-10T06:13:09.839Z,92.55
2023-04-10T06:14:07.679Z,92.61
2023-04-10T06:15:07.646Z,92.61
2023-04-10T06:16:07.685Z,92.50
2023-04-10T06:17:07.607Z,92.05
2023-04-10T06:18:07.591Z,91.95
2023-04-10T06:19:07.590Z,91.64
2023-04-10T06:20:07.594Z,91.64
2023-04-10T06:21:07.566Z,91.49
2023-04-10T06:22:07.529Z,91.39
2023-04-10T06:23:07.551Z,91.29
2023-04-10T06:24:07.495Z,90.98
2023-04-10T06:25:07.515Z,90.98
2023-04-10T06:26:07.487Z,91.08
2023-04-10T06:27:07.500Z,90.83
2023-04-10T06:28:07.488Z,90.83
2023-04-10T06:29:07.431Z,90.73
2023-04-10T06:30:07.488Z,90.53
2023-04-10T06:31:07.554Z,90.53
2023-04-10T06:32:07.414Z,90.42
2023-04-10T06:33:07.412Z,90.53
2023-04-10T06:34:07.429Z,90.53
2023-04-10T06:35:07.436Z,90.53
2023-04-10T06:36:07.372Z,90.53
2023-04-10T06:37:07.329Z,90.53
2023-04-10T06:38:07.326Z,90.63
2023-04-10T06:39:08.856Z,90.59
2023-04-10T06:40:07.341Z,90.48
2023-04-10T06:41:07.295Z,90.48
2023-04-10T06:42:07.294Z,90.38
2023-04-10T06:43:07.308Z,90.38
2023-04-10T06:44:07.280Z,90.28
2023-04-10T06:45:07.272Z,90.08
2023-04-10T06:46:07.252Z,90.14
2023-04-10T06:47:07.290Z,89.83
2023-04-10T06:48:07.228Z,89.42
2023-04-10T06:49:07.206Z,89.42
2023-04-10T06:50:07.166Z,89.42
2023-04-10T06:51:07.184Z,89.31
2023-04-10T06:52:07.165Z,89.31
2023-04-10T06:53:07.115Z,89.21
2023-04-10T06:54:07.124Z,89.11
2023-04-10T06:55:07.132Z,88.90
2023-04-10T06:56:07.077Z,89.11
2023-04-10T06:57:08.114Z,89.11
2023-04-10T06:58:07.051Z,89.21
2023-04-10T06:59:07.060Z,89.01
2023-04-10T07:00:09.227Z,89.11
2023-04-10T07:01:07.088Z,89.01
2023-04-10T07:02:07.091Z,88.96
2023-04-10T07:03:07.036Z,89.07
2023-04-10T07:04:07.099Z,89.17
2023-04-10T07:05:07.224Z,89.27
2023-04-10T07:06:07.002Z,89.17
2023-04-10T07:07:07.003Z,89.17
2023-04-10T07:08:06.924Z,89.17
2023-04-10T07:09:06.949Z,89.17
2023-04-10T07:10:07.058Z,89.27
2023-04-10T07:11:06.939Z,89.27
2023-04-10T07:12:06.879Z,89.37
2023-04-10T07:13:06.874Z,89.17
2023-04-10T07:14:06.928Z,89.17
2023-04-10T07:15:06.846Z,89.17
2023-04-10T07:16:08.852Z,89.17
2023-04-10T07:17:06.868Z,89.07
2023-04-10T07:18:06.898Z,88.96
2023-04-10T07:19:06.902Z,88.92
2023-04-10T07:20:06.805Z,88.82
2023-04-10T07:21:06.821Z,88.62
2023-04-10T07:22:06.779Z,88.51
2023-04-10T07:23:06.802Z,88.41
2023-04-10T07:24:06.772Z,87.96
2023-04-10T07:25:06.742Z,87.55
2023-04-10T07:26:06.728Z,87.65
2023-04-10T07:27:06.747Z,87.65
2023-04-10T07:28:06.717Z,87.65
2023-04-10T07:29:06.683Z,87.76
2023-04-10T07:30:06.720Z,87.65
2023-04-10T07:31:06.683Z,87.55
2023-04-10T07:32:06.767Z,87.10
2023-04-10T07:33:06.730Z,87.10
2023-04-10T07:34:06.611Z,86.90
2023-04-10T07:35:06.572Z,86.69
2023-04-10T07:36:06.583Z,86.79
2023-04-10T07:37:06.564Z,86.69
2023-04-10T07:38:06.573Z,86.65
2023-04-10T07:39:06.549Z,86.24
2023-04-10T07:40:06.552Z,86.04
2023-04-10T07:41:06.544Z,85.63
2023-04-10T07:42:06.515Z,85.42
2023-04-10T07:43:06.481Z,85.38
2023-04-10T07:44:06.444Z,85.38
2023-04-10T07:45:06.452Z,85.17
2023-04-10T07:46:06.517Z,84.87
2023-04-10T07:47:06.464Z,84.46
2023-04-10T07:48:06.505Z,84.56
2023-04-10T07:49:08.554Z,84.56
2023-04-10T07:50:06.817Z,84.36
2023-04-10T07:51:06.528Z,84.42
2023-04-10T07:52:06.479Z,84.11
2023-04-10T07:53:06.409Z,83.91
2023-04-10T07:54:06.406Z,83.81
2023-04-10T07:55:06.337Z,83.46
2023-04-10T07:56:06.319Z,83.46
2023-04-10T07:57:06.347Z,83.25
2023-04-10T07:58:06.293Z,82.75
2023-04-10T07:59:06.293Z,82.64
2023-04-10T08:00:06.341Z,82.75
2023-04-10T08:01:06.276Z,82.75
2023-04-10T08:02:06.388Z,82.75
2023-04-10T08:03:06.746Z,82.81
2023-04-10T08:04:06.437Z,82.60
2023-04-10T08:05:06.303Z,82.20
2023-04-10T08:06:06.228Z,81.74
2023-04-10T08:07:06.863Z,81.44
2023-04-10T08:08:06.148Z,81.34
2023-04-10T08:09:06.156Z,81.44
2023-04-10T08:10:06.145Z,81.13
2023-04-10T08:11:06.117Z,80.93
2023-04-10T08:12:06.110Z,80.89
2023-04-10T08:13:06.104Z,80.69
2023-04-10T08:14:06.086Z,80.58
2023-04-10T08:15:06.052Z,80.38
2023-04-10T08:16:06.052Z,79.93
2023-04-10T08:17:06.112Z,79.73
2023-04-10T08:18:06.049Z,79.52
2023-04-10T08:19:06.025Z,79.43
2023-04-10T08:20:05.983Z,79.12
2023-04-10T08:21:06.022Z,79.22
2023-04-10T08:22:05.968Z,79.12
2023-04-10T08:23:19.295Z,79.32
2023-04-10T08:24:06.925Z,79.18
2023-04-10T08:25:06.017Z,79.08
2023-04-10T08:26:05.961Z,79.08
2023-04-10T08:27:06.383Z,79.08
2023-04-10T08:28:05.956Z,78.84
2023-04-10T08:29:05.895Z,78.33
2023-04-10T08:30:05.857Z,78.23
2023-04-10T08:31:05.861Z,77.92
2023-04-10T08:32:05.860Z,77.82
2023-04-10T08:33:05.831Z,77.41
2023-04-10T08:34:05.784Z,77.86
2023-04-10T08:35:05.792Z,78.12
2023-04-10T08:36:05.813Z,78.12
2023-04-10T08:37:05.782Z,78.02
2023-04-10T08:38:13.640Z,78.02
2023-04-10T08:39:07.136Z,77.89
2023-04-10T08:40:05.736Z,77.48
2023-04-10T08:41:05.741Z,77.17
2023-04-10T08:42:05.712Z,77.17
2023-04-10T08:43:05.677Z,76.66
2023-04-10T08:44:05.679Z,76.66
2023-04-10T08:45:05.693Z,76.53
2023-04-10T08:46:05.721Z,76.22
2023-04-10T08:47:05.652Z,76.01
2023-04-10T08:48:05.619Z,75.71
2023-04-10T08:49:05.645Z,75.51
2023-04-10T08:50:05.577Z,75.60
2023-04-10T08:51:06.146Z,75.81
2023-04-10T08:52:05.584Z,75.60
2023-04-10T08:53:05.557Z,75.40
2023-04-10T08:54:05.533Z,74.96
2023-04-10T08:55:05.576Z,74.76
2023-04-10T08:56:05.512Z,74.76
2023-04-10T08:57:05.497Z,74.76
2023-04-10T08:58:05.517Z,74.86
2023-04-10T08:59:05.491Z,74.65
2023-04-10T09:00:16.393Z,74.32
2023-04-10T09:01:06.445Z,74.21
2023-04-10T09:02:05.522Z,74.11
2023-04-10T09:03:06.094Z,74.01
2023-04-10T09:04:05.564Z,73.91
2023-04-10T09:05:05.392Z,73.60
2023-04-10T09:06:05.373Z,73.40
2023-04-10T09:07:05.385Z,73.80
2023-04-10T09:08:05.356Z,73.40
2023-04-10T09:09:05.374Z,72.86
2023-04-10T09:10:05.336Z,72.34
2023-04-10T09:11:05.345Z,72.08
2023-04-10T09:12:05.293Z,72.08
2023-04-10T09:13:05.323Z,72.17
2023-04-10T09:14:05.292Z,72.58
2023-04-10T09:15:05.289Z,72.99
2023-04-10T09:16:05.326Z,72.89
2023-04-10T09:17:05.238Z,72.65
2023-04-10T09:18:05.280Z,72.34
2023-04-10T09:19:06.534Z,71.94
2023-04-10T09:20:05.186Z,70.99
2023-04-10T09:21:05.200Z,70.79
2023-04-10T09:22:05.223Z,70.48
2023-04-10T09:23:05.158Z,70.48
2023-04-10T09:24:05.159Z,70.48
2023-04-10T09:25:05.153Z,70.28
2023-04-10T09:26:05.134Z,70.07
2023-04-10T09:27:05.110Z,69.40
2023-04-10T09:28:05.127Z,69.60
2023-04-10T09:29:05.083Z,69.16
2023-04-10T09:30:05.053Z,68.55
2023-04-10T09:31:05.069Z,68.75
2023-04-10T09:32:05.025Z,68.75
2023-04-10T09:33:05.055Z,69.16
2023-04-10T09:34:05.015Z,69.16
2023-04-10T09:35:05.021Z,68.85
2023-04-10T09:36:04.977Z,69.06
2023-04-10T09:37:05.009Z,69.13
2023-04-10T09:38:04.956Z,68.72
2023-04-10T09:39:04.955Z,67.80
2023-04-10T09:40:04.921Z,67.71
2023-04-10T09:41:04.995Z,67.71
2023-04-10T09:42:04.925Z,67.91
2023-04-10T09:43:04.943Z,68.01
2023-04-10T09:44:04.871Z,68.28
2023-04-10T09:45:04.873Z,68.38
2023-04-10T09:46:04.946Z,68.38
2023-04-10T09:47:04.844Z,68.28
2023-04-10T09:48:04.901Z,68.38
2023-04-10T09:49:04.845Z,68.59
2023-04-10T09:50:04.791Z,68.99
2023-04-10T09:51:04.809Z,68.59
2023-04-10T09:52:04.756Z,68.49
2023-04-10T09:53:04.777Z,67.97
2023-04-10T09:54:04.746Z,67.97
2023-04-10T09:55:04.737Z,68.18
2023-04-10T09:56:04.790Z,68.28
2023-04-10T09:57:04.734Z,68.49
2023-04-10T09:58:04.704Z,68.69
2023-04-10T09:59:04.731Z,68.92
2023-04-10T10:00:04.667Z,68.92
2023-04-10T10:01:04.659Z,69.33
2023-04-10T10:02:04.722Z,68.89
2023-04-10T10:03:04.859Z,68.59
2023-04-10T10:04:05.355Z,68.49
2023-04-10T10:05:04.742Z,67.94
2023-04-10T10:06:04.586Z,67.84
2023-04-10T10:07:04.592Z,67.84
2023-04-10T10:08:04.582Z,67.64
2023-04-10T10:09:04.572Z,67.03
2023-04-10T10:10:04.530Z,67.13
2023-04-10T10:11:04.535Z,67.33
2023-04-10T10:12:04.513Z,67.33
2023-04-10T10:13:04.501Z,67.03
2023-04-10T10:14:04.512Z,67.10
2023-04-10T10:15:04.525Z,66.69
2023-04-10T10:16:04.507Z,66.08
2023-04-10T10:17:04.462Z,66.60
2023-04-10T10:18:04.461Z,66.29
2023-04-10T10:19:04.445Z,66.05
2023-04-10T10:20:04.427Z,65.24
2023-04-10T10:21:04.403Z,65.07
2023-04-10T10:22:04.386Z,65.68
2023-04-10T10:23:04.385Z,65.68
2023-04-10T10:24:04.355Z,65.65
2023-04-10T10:25:04.369Z,65.55
2023-04-10T10:26:04.335Z,65.55
2023-04-10T10:27:04.361Z,65.31
2023-04-10T10:28:04.325Z,65.01
2023-04-10T10:29:04.348Z,64.70
2023-04-10T10:30:11.856Z,64.61
2023-04-10T10:31:05.297Z,65.14
2023-04-10T10:32:04.264Z,65.21
2023-04-10T10:33:04.262Z,65.01
2023-04-10T10:34:04.238Z,64.81
2023-04-10T10:35:04.250Z,65.01
2023-04-10T10:36:04.221Z,65.01
2023-04-10T10:37:04.213Z,64.94
2023-04-10T10:38:04.194Z,65.24
2023-04-10T10:39:04.159Z,65.48
2023-04-10T10:40:04.163Z,65.37
2023-04-10T10:41:04.169Z,65.48
2023-04-10T10:42:04.146Z,65.99
2023-04-10T10:43:04.108Z,65.75
2023-04-10T10:44:04.109Z,65.45
2023-04-10T10:45:04.110Z,65.31
2023-04-10T10:46:04.126Z,64.58
2023-04-10T10:47:04.070Z,63.86
2023-04-10T10:48:04.151Z,63.76
2023-04-10T10:49:04.025Z,63.66
2023-04-10T10:50:59.298Z,63.35
2023-04-10T10:51:59.252Z,63.15
2023-04-10T10:52:59.263Z,63.66
2023-04-10T10:53:59.244Z,63.96
2023-04-10T10:54:59.849Z,63.86
2023-04-10T10:55:59.219Z,63.43
2023-04-10T10:56:59.211Z,63.43
2023-04-10T10:57:59.206Z,63.63
2023-04-10T10:58:59.262Z,63.73
2023-04-10T10:59:59.176Z,63.63
2023-04-10T11:00:59.216Z,63.96
2023-04-10T11:01:59.177Z,64.04
2023-04-10T11:02:59.279Z,64.14
2023-04-10T11:03:59.302Z,63.83
2023-04-10T11:04:59.101Z,64.58
2023-04-10T11:05:59.092Z,64.75
2023-04-10T11:06:59.083Z,64.54
2023-04-10T11:07:59.220Z,64.41
2023-04-10T11:08:59.078Z,63.30
2023-04-10T11:09:59.047Z,62.69
2023-04-10T11:10:59.017Z,62.38
2023-04-10T11:11:59.051Z,62.29
2023-04-10T11:12:59.000Z,62.29
2023-04-10T11:13:58.986Z,62.89
2023-04-10T11:14:58.994Z,62.99
2023-04-10T11:15:58.981Z,62.49
2023-04-10T11:16:59.017Z,62.99
2023-04-10T11:17:59.018Z,63.20
2023-04-10T11:19:58.916Z,63.20
2023-04-10T11:20:58.878Z,62.86
2023-04-10T11:21:58.885Z,62.96
2023-04-10T11:22:58.867Z,62.66
2023-04-10T11:23:58.850Z,61.95
2023-04-10T11:24:58.860Z,61.75
2023-04-10T11:25:58.903Z,61.35
2023-04-10T11:26:58.811Z,61.58
2023-04-10T11:27:58.878Z,62.08
2023-04-10T11:28:58.773Z,62.29
2023-04-10T11:29:58.800Z,62.18
2023-04-10T11:30:58.774Z,62.38
2023-04-10T11:31:58.827Z,62.69
2023-04-10T11:32:58.797Z,62.49
2023-04-10T11:33:58.757Z,62.62
2023-04-10T11:34:58.702Z,63.12
2023-04-10T11:35:58.808Z,63.73
2023-04-10T11:36:58.750Z,63.43
2023-04-10T11:37:58.670Z,63.12
2023-04-10T11:38:58.719Z,62.38
2023-04-10T11:39:58.692Z,62.49
2023-04-10T11:40:58.670Z,62.59
2023-04-10T11:41:58.699Z,62.49
2023-04-10T11:42:58.621Z,62.35
2023-04-10T11:43:58.631Z,62.35
2023-04-10T11:44:58.569Z,62.46
2023-04-10T11:45:58.613Z,62.05
2023-04-10T11:46:58.578Z,61.85
2023-04-10T11:47:58.857Z,61.82
2023-04-10T11:48:58.511Z,61.41
2023-04-10T11:49:58.509Z,61.01
2023-04-10T11:50:58.502Z,61.11
2023-04-10T11:51:58.496Z,61.11
2023-04-10T11:52:58.464Z,60.50
2023-04-10T11:53:58.450Z,60.71
2023-04-10T11:54:58.438Z,60.91
2023-04-10T11:55:58.440Z,61.11
2023-04-10T11:56:58.414Z,61.01
2023-04-10T11:57:58.423Z,60.81
2023-04-10T11:58:58.576Z,60.30
2023-04-10T11:59:58.377Z,60.41
2023-04-10T12:00:58.359Z,60.27
2023-04-10T12:01:58.419Z,60.20
2023-04-10T12:02:58.531Z,60.30
2023-04-10T12:03:58.486Z,60.71
2023-04-10T12:04:58.371Z,60.71
2023-04-10T12:05:58.310Z,60.50
2023-04-10T12:06:58.427Z,60.74
2023-04-10T12:07:58.303Z,60.94
2023-04-10T12:08:58.328Z,61.44
2023-04-10T12:09:58.252Z,61.44
2023-04-10T12:10:58.229Z,61.65
2023-04-10T12:11:59.194Z,60.94
2023-04-10T12:12:58.200Z,60.50
2023-04-10T12:13:58.198Z,60.20
2023-04-10T12:14:58.184Z,59.90
2023-04-10T12:15:58.241Z,59.59
2023-04-10T12:16:58.297Z,59.67
2023-04-10T12:17:58.215Z,59.67
2023-04-10T12:18:58.287Z,59.44
2023-04-10T12:19:58.127Z,57.34
2023-04-10T12:20:58.094Z,57.34
2023-04-10T12:21:58.094Z,58.56
2023-04-10T12:22:58.080Z,58.65
2023-04-10T12:23:58.074Z,58.76
2023-04-10T12:24:58.042Z,58.58
2023-04-10T12:25:58.039Z,59.09
2023-04-10T12:26:59.024Z,58.89
2023-04-10T12:27:58.027Z,58.65
2023-04-10T12:28:58.697Z,58.36
2023-04-10T12:29:58.133Z,58.43
2023-04-10T12:30:58.016Z,57.82
2023-04-10T12:31:57.961Z,57.52
2023-04-10T12:32:58.066Z,57.42
2023-04-10T12:33:58.058Z,57.54
2023-04-10T12:34:58.220Z,57.65
2023-04-10T12:35:57.944Z,57.11
2023-04-10T12:36:57.920Z,56.02
2023-04-10T12:37:57.895Z,56.43
2023-04-10T12:38:57.916Z,57.34
2023-04-10T12:39:57.897Z,57.21
2023-04-10T12:40:57.834Z,57.52
2023-04-10T12:41:57.847Z,57.29
2023-04-10T12:42:57.827Z,56.38
2023-04-10T12:43:57.823Z,56.18
2023-04-10T12:44:57.813Z,56.38
2023-04-10T12:45:58.017Z,56.18
2023-04-10T12:46:57.833Z,56.05
2023-04-10T12:47:57.848Z,56.25
2023-04-10T12:48:57.757Z,55.85
2023-04-10T12:49:57.735Z,56.27
2023-04-10T12:50:57.741Z,55.98
2023-04-10T12:51:57.781Z,55.36
2023-04-10T12:52:57.686Z,55.90
2023-04-10T12:53:57.709Z,55.49